KSLN/SLN METAR and TAF weather

Enter ICAO airport designator
Station Type Date Time Source
KSLN METAR 2022/06/30 12:53 UTC NOAA

KSLN 301253Z 19014KT 10SM CLR 23/13 A3001 RMK AO2 SLP146 T02330128


Station Type Date Time Source
KSLN Decoded METAR 2022/06/30 12:53 UTC NOAA

SALINA MUNICIPAL AIRPORT, KS, United States (KSLN) 38-47N 97-39W 385M
Jun 30, 2022 - 08:53 AM EDT / 2022.06.30 1253 UTC
Wind: from the S (190 degrees) at 16 MPH (14 KT):0
Visibility: 10 mile(s):0
Sky conditions: clear
Temperature: 73.9 F (23.3 C)
Dew Point: 55.0 F (12.8 C)
Relative Humidity: 51%
Pressure (altimeter): 30.01 in. Hg (1016 hPa)
ob: KSLN 301253Z 19014KT 10SM CLR 23/13 A3001 RMK AO2 SLP146 T02330128
cycle: 13

Station Type Date Time Source
KSLN TAF 2022/06/30 12:24 UTC NOAA

TAF KSLN 301122Z 3012/0112 18012KT P6SM SKC
FM301700 19018G27KT P6SM SKC
FM010000 17013KT P6SM BKN200

Example: see airport list